createdAt,value
2018-03-03T00:00:31.370Z,0.00
2018-03-03T00:02:24.311Z,0.00
2018-03-03T00:03:24.295Z,0.00
2018-03-03T00:05:17.216Z,0.00
2018-03-03T00:06:17.219Z,0.00
2018-03-03T00:08:10.163Z,0.00
2018-03-03T00:09:10.150Z,0.00
2018-03-03T00:11:03.064Z,0.00
2018-03-03T00:12:03.069Z,0.00
2018-03-03T00:13:56.008Z,0.00
2018-03-03T00:14:55.991Z,0.00
2018-03-03T00:16:48.899Z,0.00
2018-03-03T00:17:48.911Z,0.00
2018-03-03T00:19:41.853Z,0.00
2018-03-03T00:20:41.835Z,0.00
2018-03-03T00:22:34.781Z,0.00
2018-03-03T00:23:34.746Z,0.00
2018-03-03T00:25:27.664Z,0.00
2018-03-03T00:26:27.670Z,0.00
2018-03-03T00:28:20.606Z,0.00
2018-03-03T00:29:20.598Z,0.00
2018-03-03T00:31:13.509Z,0.00
2018-03-03T00:32:13.532Z,0.00
2018-03-03T00:34:06.447Z,0.00
2018-03-03T00:35:06.435Z,0.00
2018-03-03T00:36:59.351Z,0.00
2018-03-03T00:37:59.357Z,0.00
2018-03-03T00:39:52.309Z,0.00
2018-03-03T00:40:52.276Z,0.00
2018-03-03T00:42:45.688Z,0.00
2018-03-03T00:43:45.690Z,0.00
2018-03-03T00:45:38.632Z,0.00
2018-03-03T00:46:38.611Z,0.00
2018-03-03T00:48:31.551Z,0.00
2018-03-03T00:49:31.529Z,0.00
2018-03-03T00:51:24.444Z,0.00
2018-03-03T00:52:24.454Z,0.00
2018-03-03T00:54:17.380Z,0.00
2018-03-03T00:55:17.372Z,0.00
2018-03-03T00:57:10.784Z,0.00
2018-03-03T00:58:10.786Z,0.00
2018-03-03T01:00:03.739Z,0.00
2018-03-03T01:01:03.723Z,0.00
2018-03-03T01:02:56.633Z,0.00
2018-03-03T01:03:56.653Z,0.00
2018-03-03T01:05:49.575Z,0.00
2018-03-03T01:06:49.563Z,0.00
2018-03-03T01:08:42.492Z,0.00
2018-03-03T01:09:42.475Z,0.00
2018-03-03T01:11:35.387Z,0.00
2018-03-03T01:12:35.394Z,0.00
2018-03-03T01:14:28.335Z,0.00
2018-03-03T01:15:28.317Z,0.00
2018-03-03T01:17:21.241Z,0.00
2018-03-03T01:18:21.249Z,0.00
2018-03-03T01:20:14.175Z,0.00
2018-03-03T01:21:14.162Z,0.00
2018-03-03T01:23:07.071Z,0.00
2018-03-03T01:24:07.077Z,0.00
2018-03-03T01:26:00.021Z,0.00
2018-03-03T01:27:00.000Z,0.00
2018-03-03T01:28:52.949Z,0.00
2018-03-03T01:29:52.920Z,0.00
2018-03-03T01:31:45.852Z,0.00
2018-03-03T01:32:45.832Z,0.00
2018-03-03T01:34:38.762Z,0.00
2018-03-03T01:35:38.751Z,0.00
2018-03-03T01:37:31.660Z,0.00
2018-03-03T01:38:31.672Z,0.00
2018-03-03T01:40:24.602Z,0.00
2018-03-03T01:41:24.589Z,0.00
2018-03-03T01:43:17.509Z,0.00
2018-03-03T01:44:17.512Z,0.00
2018-03-03T01:46:10.446Z,0.00
2018-03-03T01:47:10.434Z,0.00
2018-03-03T01:49:03.367Z,0.00
2018-03-03T01:50:03.353Z,0.00
2018-03-03T01:51:57.787Z,0.00
2018-03-03T01:52:57.767Z,0.00
2018-03-03T01:54:50.704Z,0.00
2018-03-03T01:55:50.690Z,0.00
2018-03-03T01:57:43.596Z,0.00
2018-03-03T01:58:43.605Z,0.00
2018-03-03T02:00:36.538Z,0.00
2018-03-03T02:01:36.521Z,0.00
2018-03-03T02:03:29.440Z,0.00
2018-03-03T02:04:29.444Z,0.00
2018-03-03T02:06:22.381Z,0.00
2018-03-03T02:07:22.386Z,0.00
2018-03-03T02:09:15.302Z,0.00
2018-03-03T02:10:15.328Z,0.00
2018-03-03T02:12:08.215Z,0.00
2018-03-03T02:13:08.217Z,0.00
2018-03-03T02:15:01.153Z,0.00
2018-03-03T02:16:01.138Z,0.00
2018-03-03T02:17:54.056Z,0.00
2018-03-03T02:18:54.061Z,0.00
2018-03-03T02:20:46.995Z,0.00
2018-03-03T02:21:46.976Z,0.00
2018-03-03T02:23:39.933Z,0.00
2018-03-03T02:24:39.939Z,0.00
2018-03-03T02:26:32.873Z,0.00
2018-03-03T02:27:32.859Z,0.00
2018-03-03T02:29:25.850Z,0.00
2018-03-03T02:30:25.788Z,0.00
2018-03-03T02:32:18.699Z,0.00
2018-03-03T02:33:18.704Z,0.00
2018-03-03T02:35:12.627Z,0.00
2018-03-03T02:36:12.623Z,0.00
2018-03-03T02:38:05.541Z,0.00
2018-03-03T02:39:05.551Z,0.00
2018-03-03T02:40:58.507Z,0.00
2018-03-03T02:41:58.481Z,0.00
2018-03-03T02:43:51.417Z,0.00
2018-03-03T02:44:51.400Z,0.00
2018-03-03T02:46:44.340Z,0.00
2018-03-03T02:47:44.336Z,0.00
2018-03-03T02:49:37.794Z,0.00
2018-03-03T02:50:37.736Z,0.00
2018-03-03T02:52:30.650Z,0.00
2018-03-03T02:53:30.691Z,0.00
2018-03-03T02:55:23.634Z,0.00
2018-03-03T02:56:23.582Z,0.00
2018-03-03T02:58:16.493Z,0.00
2018-03-03T02:59:16.496Z,0.00
2018-03-03T03:01:09.441Z,0.00
2018-03-03T03:02:09.418Z,0.00
2018-03-03T03:04:02.356Z,0.00
2018-03-03T03:05:02.339Z,0.00
2018-03-03T05:05:51.656Z,0.00
2018-03-03T05:06:51.631Z,0.00
2018-03-03T05:08:44.580Z,0.00
2018-03-03T05:09:44.538Z,0.00
2018-03-03T05:11:37.955Z,0.00
2018-03-03T05:12:37.941Z,0.00
2018-03-03T05:14:30.843Z,0.00
2018-03-03T05:15:30.843Z,0.00
2018-03-03T05:17:23.773Z,0.00
2018-03-03T05:18:23.751Z,0.00
2018-03-03T05:20:16.660Z,0.00
2018-03-03T05:21:16.662Z,0.00
2018-03-03T05:23:09.670Z,0.00
2018-03-03T05:24:09.571Z,0.00
2018-03-03T05:26:02.981Z,0.00
2018-03-03T05:27:02.990Z,0.00
2018-03-03T05:28:55.916Z,0.00
2018-03-03T05:29:55.902Z,0.00
2018-03-03T05:31:48.836Z,0.00
2018-03-03T05:32:48.860Z,0.00
2018-03-03T05:34:42.230Z,0.00
2018-03-03T05:35:42.236Z,0.00
2018-03-03T05:37:35.671Z,0.00
2018-03-03T05:38:35.649Z,0.00
2018-03-03T05:40:28.567Z,0.00
2018-03-03T05:41:28.573Z,0.00
2018-03-03T05:43:22.006Z,0.00
2018-03-03T05:44:21.989Z,0.00
2018-03-03T05:46:14.904Z,0.00
2018-03-03T05:47:14.906Z,0.00
2018-03-03T05:49:07.842Z,0.00
2018-03-03T05:50:07.825Z,4.00
2018-03-03T05:52:00.742Z,0.00
2018-03-03T05:53:00.749Z,4.00
2018-03-03T05:54:53.676Z,4.00
2018-03-03T05:55:53.664Z,8.00
2018-03-03T05:57:48.089Z,4.00
2018-03-03T05:58:48.078Z,8.00
2018-03-03T06:00:41.530Z,12.00
2018-03-03T06:01:41.518Z,12.00
2018-03-03T06:03:34.957Z,16.00
2018-03-03T06:04:34.950Z,24.00
2018-03-03T06:06:27.860Z,28.00
2018-03-03T06:07:27.865Z,32.00
2018-03-03T06:09:20.803Z,44.00
2018-03-03T06:10:20.789Z,52.00
2018-03-03T06:12:13.697Z,68.00
2018-03-03T06:13:13.705Z,84.00
2018-03-03T06:15:06.663Z,104.00
2018-03-03T06:16:06.647Z,120.00
2018-03-03T06:18:00.602Z,148.00
2018-03-03T06:19:00.570Z,164.00
2018-03-03T06:20:53.483Z,188.00
2018-03-03T06:21:53.472Z,204.00
2018-03-03T06:23:46.403Z,236.00
2018-03-03T06:24:46.388Z,256.00
2018-03-03T06:26:39.308Z,296.00
2018-03-03T06:27:39.312Z,320.00
2018-03-03T06:29:32.742Z,372.00
2018-03-03T06:30:32.732Z,400.00
2018-03-03T06:32:25.659Z,452.00
2018-03-03T06:33:25.660Z,472.00
2018-03-03T06:35:18.591Z,520.00
2018-03-03T06:36:18.571Z,552.00
2018-03-03T06:38:11.495Z,604.00
2018-03-03T06:39:11.501Z,620.00
2018-03-03T06:41:04.433Z,656.00
2018-03-03T06:42:04.417Z,668.00
2018-03-03T06:43:57.848Z,716.00
2018-03-03T06:44:57.837Z,736.00
2018-03-03T06:46:50.757Z,796.00
2018-03-03T06:47:50.758Z,824.00
2018-03-03T06:49:43.692Z,888.00
2018-03-03T06:50:43.676Z,924.00
2018-03-03T06:52:37.090Z,980.00
2018-03-03T06:53:37.101Z,1012.00
2018-03-03T06:55:30.034Z,1064.00
2018-03-03T06:56:30.016Z,1092.00
2018-03-03T06:58:22.926Z,1196.00
2018-03-03T06:59:22.932Z,1248.00
2018-03-03T07:01:15.873Z,1360.00
2018-03-03T07:02:15.880Z,1420.00
2018-03-03T07:04:08.790Z,1516.00
2018-03-03T07:05:08.813Z,1560.00
2018-03-03T07:07:02.189Z,1600.00
2018-03-03T07:08:02.195Z,1656.00
2018-03-03T07:09:55.147Z,1688.00
2018-03-03T07:10:55.119Z,1716.00
2018-03-03T07:12:48.035Z,1712.00
2018-03-03T07:13:48.051Z,1732.00
2018-03-03T07:15:40.976Z,1864.00
2018-03-03T07:16:40.963Z,1872.00
2018-03-03T07:18:33.873Z,1964.00
2018-03-03T07:19:33.880Z,1956.00
2018-03-03T07:21:26.839Z,1916.00
2018-03-03T07:22:26.833Z,1904.00
2018-03-03T07:24:19.734Z,1988.00
2018-03-03T07:25:19.721Z,2076.00
2018-03-03T07:27:12.642Z,2184.00
2018-03-03T07:28:12.646Z,2232.00
2018-03-03T07:30:05.591Z,2264.00
2018-03-03T07:31:05.565Z,2312.00
2018-03-03T07:32:58.482Z,2420.00
2018-03-03T07:33:58.492Z,2440.00
2018-03-03T07:35:51.473Z,2464.00
2018-03-03T07:36:51.448Z,2492.00
2018-03-03T07:38:44.332Z,2648.00
2018-03-03T07:39:44.344Z,2792.00
2018-03-03T07:41:37.267Z,3044.00
2018-03-03T07:42:37.252Z,3104.00
2018-03-03T07:44:30.203Z,3212.00
2018-03-03T07:45:30.183Z,3276.00
2018-03-03T07:47:23.099Z,3420.00
2018-03-03T07:48:23.105Z,3500.00
2018-03-03T07:50:16.076Z,3576.00
2018-03-03T07:51:16.042Z,3612.00
2018-03-03T07:53:09.476Z,3716.00
2018-03-03T07:54:09.486Z,3708.00
2018-03-03T07:56:02.908Z,3476.00
2018-03-03T07:57:02.894Z,3340.00
2018-03-03T07:58:55.818Z,3260.00
2018-03-03T07:59:55.823Z,3216.00
2018-03-03T08:01:48.767Z,3192.00
2018-03-03T08:02:48.757Z,3196.00
2018-03-03T08:04:41.690Z,3144.00
2018-03-03T08:05:41.704Z,3096.00
2018-03-03T08:07:34.593Z,3028.00
2018-03-03T08:08:34.595Z,3020.00
2018-03-03T08:10:27.535Z,2932.00
2018-03-03T08:11:27.523Z,2884.00
2018-03-03T08:13:20.441Z,2876.00
2018-03-03T08:14:20.448Z,2888.00
2018-03-03T08:16:13.400Z,2912.00
2018-03-03T08:17:13.378Z,2896.00
2018-03-03T08:19:06.338Z,2944.00
2018-03-03T08:20:06.312Z,3056.00
2018-03-03T08:21:59.302Z,3236.00
2018-03-03T08:22:59.257Z,3352.00
2018-03-03T08:24:52.193Z,3460.00
2018-03-03T08:25:52.180Z,3468.00
2018-03-03T08:27:46.605Z,3432.00
2018-03-03T08:28:46.607Z,3480.00
2018-03-03T08:30:39.555Z,3672.00
2018-03-03T08:31:39.542Z,3700.00
2018-03-03T08:33:32.953Z,3848.00
2018-03-03T08:34:32.963Z,3956.00
2018-03-03T08:36:25.903Z,4152.00
2018-03-03T08:37:25.928Z,4356.00
2018-03-03T08:39:18.823Z,4584.00
2018-03-03T08:40:18.826Z,4780.00
2018-03-03T08:42:11.769Z,5128.00
2018-03-03T08:43:11.755Z,5228.00
2018-03-03T08:45:04.743Z,5356.00
2018-03-03T08:46:04.710Z,5332.00
2018-03-03T08:47:57.628Z,5224.00
2018-03-03T08:48:57.633Z,5276.00
2018-03-03T08:50:50.586Z,5220.00
2018-03-03T08:51:50.621Z,5168.00
2018-03-03T08:53:43.521Z,4980.00
2018-03-03T08:54:43.531Z,5028.00
2018-03-03T08:56:36.464Z,5152.00
2018-03-03T08:57:36.493Z,5268.00
2018-03-03T08:59:29.380Z,5552.00
2018-03-03T09:00:29.384Z,5756.00
2018-03-03T09:02:22.816Z,6276.00
2018-03-03T09:03:22.802Z,6800.00
2018-03-03T09:04:22.814Z,7368.00
2018-03-03T09:05:22.832Z,7768.00
2018-03-03T09:06:22.843Z,7860.00
2018-03-03T09:07:22.884Z,7820.00
2018-03-03T09:08:22.875Z,7732.00
2018-03-03T09:09:22.888Z,8200.00
2018-03-03T09:10:22.905Z,8568.00
2018-03-03T09:11:22.917Z,8904.00
2018-03-03T09:12:22.931Z,8872.00
2018-03-03T09:13:22.944Z,8996.00
2018-03-03T09:14:22.956Z,9192.00
2018-03-03T09:15:22.978Z,9004.00
2018-03-03T09:16:22.988Z,8684.00
2018-03-03T09:17:23.005Z,8532.00
2018-03-03T09:18:23.016Z,8264.00
2018-03-03T09:19:23.034Z,8036.00
2018-03-03T09:20:23.068Z,7816.00
2018-03-03T09:21:23.082Z,7672.00
2018-03-03T09:22:23.074Z,7472.00
2018-03-03T09:23:23.091Z,7348.00
2018-03-03T09:24:23.107Z,7288.00
2018-03-03T09:25:23.116Z,7236.00
2018-03-03T09:26:23.136Z,7132.00
2018-03-03T09:27:23.146Z,7004.00
2018-03-03T09:28:23.218Z,6956.00
2018-03-03T09:29:23.205Z,6956.00
2018-03-03T09:30:23.189Z,6644.00
2018-03-03T09:31:23.205Z,6576.00
2018-03-03T09:32:23.219Z,6516.00
2018-03-03T09:33:23.240Z,6364.00
2018-03-03T09:34:23.251Z,6280.00
2018-03-03T09:35:23.270Z,6364.00
2018-03-03T09:36:23.287Z,6424.00
2018-03-03T09:37:23.294Z,6336.00
2018-03-03T09:38:23.316Z,6208.00
2018-03-03T09:39:23.352Z,6312.00
2018-03-03T09:40:23.340Z,6496.00
2018-03-03T09:41:23.353Z,6532.00
2018-03-03T09:42:23.370Z,6812.00
2018-03-03T09:43:23.382Z,6804.00
2018-03-03T09:44:23.434Z,6592.00
2018-03-03T09:45:23.424Z,6844.00
2018-03-03T09:46:23.429Z,7016.00
2018-03-03T09:47:23.449Z,7260.00
2018-03-03T09:48:23.460Z,7508.00
2018-03-03T09:49:23.487Z,7876.00
2018-03-03T09:50:23.488Z,8344.00
2018-03-03T09:51:23.515Z,8696.00
2018-03-03T09:52:23.517Z,8724.00
2018-03-03T09:53:23.535Z,8728.00
2018-03-03T09:54:23.554Z,8668.00
2018-03-03T09:55:23.563Z,8388.00
2018-03-03T09:56:23.580Z,8396.00
2018-03-03T09:57:23.609Z,8608.00
2018-03-03T09:58:23.608Z,8540.00
2018-03-03T09:59:23.630Z,8632.00
2018-03-03T10:00:23.638Z,8648.00
2018-03-03T10:01:23.662Z,8560.00
2018-03-03T10:02:23.668Z,8280.00
2018-03-03T10:03:23.740Z,8752.00
2018-03-03T10:04:23.702Z,8652.00
2018-03-03T10:05:23.719Z,8596.00
2018-03-03T10:06:23.738Z,8488.00
2018-03-03T10:07:23.745Z,8508.00
2018-03-03T10:08:23.763Z,9088.00
2018-03-03T10:09:23.781Z,9264.00
2018-03-03T10:10:23.791Z,8952.00
2018-03-03T10:11:23.851Z,9152.00
2018-03-03T10:12:23.828Z,10928.00
2018-03-03T10:13:23.840Z,10316.00
2018-03-03T10:14:23.855Z,8192.00
2018-03-03T10:15:23.869Z,8088.00
2018-03-03T10:16:23.890Z,8156.00
2018-03-03T10:17:23.903Z,7864.00
2018-03-03T10:18:23.924Z,8008.00
2018-03-03T10:19:23.935Z,8028.00
2018-03-03T10:20:23.951Z,8224.00
2018-03-03T10:21:24.000Z,8412.00
2018-03-03T10:22:23.976Z,8400.00
2018-03-03T10:23:23.999Z,8156.00
2018-03-03T10:24:24.011Z,8364.00
2018-03-03T10:25:24.028Z,8460.00
2018-03-03T10:26:24.107Z,8260.00
2018-03-03T10:27:24.060Z,8048.00
2018-03-03T10:28:24.075Z,7812.00
2018-03-03T10:29:24.086Z,7724.00
2018-03-03T10:30:24.103Z,7688.00
2018-03-03T10:31:24.124Z,7992.00
2018-03-03T10:32:24.233Z,8000.00
2018-03-03T10:33:24.156Z,7896.00
2018-03-03T10:34:24.169Z,7736.00
2018-03-03T10:35:24.187Z,7696.00
2018-03-03T10:36:24.201Z,7664.00
2018-03-03T10:37:24.223Z,7696.00
2018-03-03T10:38:24.281Z,7852.00
2018-03-03T10:39:24.252Z,7588.00
2018-03-03T10:40:24.261Z,7596.00
2018-03-03T10:41:24.282Z,7408.00
2018-03-03T10:42:24.290Z,7356.00
2018-03-03T10:43:24.310Z,7424.00
2018-03-03T10:44:24.326Z,7680.00
2018-03-03T10:45:24.388Z,7664.00
2018-03-03T10:46:24.357Z,7552.00
2018-03-03T10:47:24.372Z,7564.00
2018-03-03T10:48:24.387Z,7468.00
2018-03-03T10:49:24.407Z,7608.00
2018-03-03T10:50:24.420Z,7572.00
2018-03-03T10:51:24.435Z,7696.00
2018-03-03T10:52:24.453Z,7736.00
2018-03-03T10:53:24.490Z,7792.00
2018-03-03T10:54:24.486Z,7728.00
2018-03-03T10:55:24.499Z,7664.00
2018-03-03T10:56:24.516Z,7604.00
2018-03-03T10:57:24.579Z,7668.00
2018-03-03T10:58:24.544Z,7732.00
2018-03-03T10:59:24.560Z,7832.00
2018-03-03T11:00:24.577Z,7816.00
2018-03-03T11:01:24.595Z,7916.00
2018-03-03T11:02:24.608Z,8032.00
2018-03-03T11:03:24.623Z,8204.00
2018-03-03T11:04:24.645Z,7968.00
2018-03-03T11:05:24.680Z,8108.00
2018-03-03T11:06:24.673Z,8104.00
2018-03-03T11:07:24.688Z,7956.00
2018-03-03T11:08:24.704Z,8008.00
2018-03-03T11:09:24.723Z,8004.00
2018-03-03T11:10:24.758Z,8052.00
2018-03-03T11:11:24.762Z,7988.00
2018-03-03T11:12:24.770Z,7864.00
2018-03-03T11:13:24.783Z,7864.00
2018-03-03T11:14:24.806Z,7892.00
2018-03-03T11:15:24.816Z,7824.00
2018-03-03T11:16:24.832Z,7944.00
2018-03-03T11:17:24.844Z,8004.00
2018-03-03T11:18:24.858Z,7940.00
2018-03-03T11:19:24.882Z,8008.00
2018-03-03T11:20:24.895Z,7960.00
2018-03-03T11:21:24.954Z,8012.00
2018-03-03T11:22:24.941Z,8036.00
2018-03-03T11:23:24.947Z,8180.00
2018-03-03T11:24:24.973Z,8220.00
2018-03-03T11:25:24.973Z,8180.00
2018-03-03T11:26:24.993Z,7876.00
2018-03-03T11:27:25.014Z,7736.00
2018-03-03T11:28:25.035Z,7740.00
2018-03-03T11:29:25.037Z,7732.00
2018-03-03T11:30:25.054Z,7632.00
2018-03-03T11:31:25.068Z,7460.00
2018-03-03T11:32:25.082Z,7152.00
2018-03-03T11:33:25.131Z,6824.00
2018-03-03T11:34:25.121Z,6612.00
2018-03-03T11:35:25.134Z,6600.00
2018-03-03T11:36:25.156Z,6708.00
2018-03-03T11:37:25.169Z,6720.00
2018-03-03T11:38:25.181Z,6844.00
2018-03-03T11:39:25.214Z,6976.00
2018-03-03T11:40:25.260Z,6976.00
2018-03-03T11:41:25.240Z,7028.00
2018-03-03T11:42:25.241Z,7140.00
2018-03-03T11:43:25.307Z,7372.00
2018-03-03T11:44:25.274Z,7472.00
2018-03-03T11:45:25.291Z,7576.00
2018-03-03T11:46:25.310Z,7676.00
2018-03-03T11:47:25.354Z,7688.00
2018-03-03T11:48:25.355Z,7596.00
2018-03-03T11:49:25.377Z,7444.00
2018-03-03T11:50:25.375Z,7200.00
2018-03-03T11:51:25.386Z,6892.00
2018-03-03T11:52:25.402Z,6524.00
2018-03-03T11:53:25.421Z,6224.00
2018-03-03T11:54:25.491Z,5948.00
2018-03-03T11:55:25.448Z,5712.00
2018-03-03T11:56:25.468Z,5432.00
2018-03-03T11:57:25.484Z,5388.00
2018-03-03T11:58:25.496Z,5576.00
2018-03-03T11:59:25.510Z,5752.00
2018-03-03T12:00:25.529Z,5888.00
2018-03-03T12:01:25.549Z,5836.00
2018-03-03T12:02:25.570Z,5804.00
2018-03-03T12:03:25.577Z,5752.00
2018-03-03T12:04:25.625Z,5744.00
2018-03-03T12:05:25.609Z,5764.00
2018-03-03T12:06:25.624Z,5716.00
2018-03-03T12:07:25.643Z,5596.00
2018-03-03T12:08:25.656Z,5532.00
2018-03-03T12:09:25.752Z,5600.00
2018-03-03T12:10:25.686Z,5636.00
2018-03-03T12:11:25.730Z,5620.00
2018-03-03T12:12:25.715Z,5472.00
2018-03-03T12:13:25.737Z,5256.00
2018-03-03T12:14:25.756Z,5032.00
2018-03-03T12:15:25.767Z,5004.00
2018-03-03T12:16:25.780Z,5148.00
2018-03-03T12:17:25.797Z,5252.00
2018-03-03T12:18:25.810Z,5316.00
2018-03-03T12:19:25.826Z,5268.00
2018-03-03T12:20:25.844Z,5260.00
2018-03-03T12:21:25.868Z,5084.00
2018-03-03T12:22:25.873Z,4932.00
2018-03-03T12:23:25.892Z,4856.00
2018-03-03T12:24:25.904Z,4820.00
2018-03-03T12:25:25.922Z,4768.00
2018-03-03T12:26:25.939Z,4788.00
2018-03-03T12:27:25.951Z,4760.00
2018-03-03T12:28:25.968Z,4600.00
2018-03-03T12:29:25.991Z,4508.00
2018-03-03T12:30:25.995Z,4436.00
2018-03-03T12:31:26.012Z,4288.00
2018-03-03T12:32:26.028Z,4232.00
2018-03-03T12:33:26.043Z,4252.00
2018-03-03T12:34:26.103Z,4284.00
2018-03-03T12:35:26.092Z,4348.00
2018-03-03T12:36:26.116Z,4296.00
2018-03-03T12:37:26.103Z,4272.00
2018-03-03T12:38:26.119Z,4288.00
2018-03-03T12:39:26.136Z,4328.00
2018-03-03T12:40:26.151Z,4348.00
2018-03-03T12:41:26.177Z,4372.00
2018-03-03T12:42:26.180Z,4396.00
2018-03-03T12:43:26.196Z,4488.00
2018-03-03T12:44:26.212Z,4540.00
2018-03-03T12:45:26.227Z,4512.00
2018-03-03T12:46:26.241Z,4544.00
2018-03-03T12:47:26.311Z,4556.00
2018-03-03T12:48:26.272Z,4544.00
2018-03-03T12:49:26.297Z,4584.00
2018-03-03T12:50:26.307Z,4568.00
2018-03-03T12:51:26.316Z,4592.00
2018-03-03T12:52:26.332Z,4500.00
2018-03-03T12:53:26.347Z,4496.00
2018-03-03T12:54:26.378Z,4580.00
2018-03-03T12:55:26.378Z,4616.00
2018-03-03T12:56:26.394Z,4440.00
2018-03-03T12:57:26.408Z,4188.00
2018-03-03T12:58:26.445Z,3944.00
2018-03-03T12:59:26.440Z,3784.00
2018-03-03T13:00:26.466Z,3716.00
2018-03-03T13:01:26.475Z,3728.00
2018-03-03T13:02:26.487Z,3728.00
2018-03-03T13:03:26.498Z,3644.00
2018-03-03T13:04:26.515Z,3616.00
2018-03-03T13:05:26.533Z,3644.00
2018-03-03T13:06:26.575Z,3736.00
2018-03-03T13:07:26.563Z,3692.00
2018-03-03T13:08:26.576Z,3644.00
2018-03-03T13:09:26.594Z,3664.00
2018-03-03T13:10:26.616Z,3688.00
2018-03-03T13:11:26.633Z,3696.00
2018-03-03T13:12:26.637Z,3728.00
2018-03-03T13:13:26.654Z,3740.00
2018-03-03T13:14:26.673Z,3732.00
2018-03-03T13:15:26.681Z,3724.00
2018-03-03T13:16:26.702Z,3732.00
2018-03-03T13:17:26.719Z,3712.00
2018-03-03T13:18:26.726Z,3756.00
2018-03-03T13:19:26.786Z,3792.00
2018-03-03T13:20:26.759Z,3816.00
2018-03-03T13:21:26.771Z,3844.00
2018-03-03T13:22:26.788Z,3852.00
2018-03-03T13:23:26.805Z,3844.00
2018-03-03T13:24:26.826Z,3800.00
2018-03-03T13:25:26.842Z,3748.00
2018-03-03T13:26:26.903Z,3728.00
2018-03-03T13:27:26.876Z,3696.00
2018-03-03T13:28:26.878Z,3688.00
2018-03-03T13:29:26.891Z,3752.00
2018-03-03T13:30:26.908Z,3748.00
2018-03-03T13:31:26.924Z,3728.00
2018-03-03T13:32:26.939Z,3740.00
2018-03-03T13:33:26.954Z,3732.00
2018-03-03T13:34:26.972Z,3736.00
2018-03-03T13:35:26.982Z,3740.00
2018-03-03T13:36:26.994Z,3752.00
2018-03-03T13:37:27.021Z,3744.00
2018-03-03T13:38:27.035Z,3752.00
2018-03-03T13:39:27.107Z,3756.00
2018-03-03T13:40:27.055Z,3736.00
2018-03-03T13:41:27.072Z,3712.00
2018-03-03T13:42:27.084Z,3672.00
2018-03-03T13:43:27.103Z,3644.00
2018-03-03T13:44:27.117Z,3648.00
2018-03-03T13:45:27.163Z,3636.00
2018-03-03T13:46:27.170Z,3596.00
2018-03-03T13:47:27.163Z,3564.00
2018-03-03T13:48:27.181Z,3536.00
2018-03-03T13:49:27.191Z,3496.00
2018-03-03T13:50:27.204Z,3452.00
2018-03-03T13:51:27.223Z,3420.00
2018-03-03T13:52:27.237Z,3416.00
2018-03-03T13:53:27.348Z,3404.00
2018-03-03T13:54:27.265Z,3388.00
2018-03-03T13:55:27.284Z,3372.00
2018-03-03T13:56:27.294Z,3364.00
2018-03-03T13:57:27.317Z,3368.00
2018-03-03T13:58:27.327Z,3384.00
2018-03-03T13:59:27.404Z,3392.00
2018-03-03T14:00:27.362Z,3404.00
2018-03-03T14:01:27.420Z,3440.00
2018-03-03T14:02:27.385Z,3484.00
2018-03-03T14:03:27.406Z,3528.00
2018-03-03T14:04:27.433Z,3576.00
2018-03-03T14:05:27.428Z,3636.00
2018-03-03T14:06:27.455Z,3696.00
2018-03-03T14:07:27.465Z,3748.00
2018-03-03T14:08:27.479Z,3796.00
2018-03-03T14:09:27.503Z,3860.00
2018-03-03T14:10:27.508Z,3916.00
2018-03-03T14:11:27.530Z,3980.00
2018-03-03T14:12:27.556Z,4028.00
2018-03-03T14:13:27.552Z,4068.00
2018-03-03T14:14:27.610Z,4120.00
2018-03-03T14:15:27.581Z,4168.00
2018-03-03T14:16:27.604Z,4204.00
2018-03-03T14:17:27.644Z,4236.00
2018-03-03T14:18:27.625Z,4260.00
2018-03-03T14:19:27.665Z,4288.00
2018-03-03T14:20:27.667Z,4312.00
2018-03-03T14:21:27.675Z,4336.00
2018-03-03T14:22:27.689Z,4364.00
2018-03-03T14:23:27.705Z,4420.00
2018-03-03T14:24:27.721Z,4472.00
2018-03-03T14:25:27.770Z,4496.00
2018-03-03T14:26:27.748Z,4496.00
2018-03-03T14:27:27.783Z,4516.00
2018-03-03T14:28:27.782Z,4528.00
2018-03-03T14:29:27.796Z,4536.00
2018-03-03T14:30:27.811Z,4532.00
2018-03-03T14:31:27.832Z,4524.00
2018-03-03T14:32:27.853Z,4544.00
2018-03-03T14:33:27.911Z,4568.00
2018-03-03T14:34:27.875Z,4568.00
2018-03-03T14:35:27.892Z,4560.00
2018-03-03T14:36:27.903Z,4556.00
2018-03-03T14:37:27.921Z,4548.00
2018-03-03T14:38:27.936Z,4528.00
2018-03-03T14:39:27.991Z,4512.00
2018-03-03T14:40:27.969Z,4484.00
2018-03-03T14:41:27.987Z,4436.00
2018-03-03T14:42:28.002Z,4380.00
2018-03-03T14:43:28.015Z,4312.00
2018-03-03T14:44:28.027Z,4228.00
2018-03-03T14:45:28.047Z,4124.00
2018-03-03T14:46:28.072Z,4020.00
2018-03-03T14:47:28.079Z,3916.00
2018-03-03T14:48:28.095Z,3836.00
2018-03-03T14:49:28.106Z,3760.00
2018-03-03T14:50:28.133Z,3712.00
2018-03-03T14:51:28.141Z,3652.00
2018-03-03T14:52:28.152Z,3596.00
2018-03-03T14:53:28.173Z,3544.00
2018-03-03T14:54:28.200Z,3496.00
2018-03-03T14:55:28.200Z,3452.00
2018-03-03T14:56:28.222Z,3412.00
2018-03-03T14:57:28.232Z,3376.00
2018-03-03T14:58:28.249Z,3344.00
2018-03-03T14:59:28.310Z,3324.00
2018-03-03T15:00:28.280Z,3292.00
2018-03-03T15:01:28.299Z,3268.00
2018-03-03T15:02:28.313Z,3236.00
2018-03-03T15:03:28.326Z,3208.00
2018-03-03T15:04:28.344Z,3184.00
2018-03-03T15:05:28.400Z,3148.00
2018-03-03T15:06:28.373Z,3108.00
2018-03-03T15:07:28.390Z,3076.00
2018-03-03T15:08:28.404Z,3052.00
2018-03-03T15:09:28.420Z,3028.00
2018-03-03T15:10:28.436Z,2996.00
2018-03-03T15:11:28.456Z,2968.00
2018-03-03T15:12:28.482Z,2936.00
2018-03-03T15:13:28.550Z,2900.00
2018-03-03T15:14:28.496Z,2864.00
2018-03-03T15:15:28.566Z,2828.00
2018-03-03T15:16:28.529Z,2780.00
2018-03-03T15:17:28.547Z,2732.00
2018-03-03T15:18:28.556Z,2684.00
2018-03-03T15:19:28.571Z,2648.00
2018-03-03T15:20:28.592Z,2608.00
2018-03-03T15:21:28.606Z,2572.00
2018-03-03T15:22:28.637Z,2536.00
2018-03-03T15:23:28.635Z,2496.00
2018-03-03T15:24:28.652Z,2460.00
2018-03-03T15:25:28.666Z,2432.00
2018-03-03T15:26:28.678Z,2404.00
2018-03-03T15:27:28.717Z,2380.00
2018-03-03T15:28:28.751Z,2356.00
2018-03-03T15:29:28.725Z,2332.00
2018-03-03T15:30:28.742Z,2308.00
2018-03-03T15:31:28.757Z,2288.00
2018-03-03T15:32:28.775Z,2264.00
2018-03-03T15:33:28.835Z,2240.00
2018-03-03T15:34:28.805Z,2216.00
2018-03-03T15:35:28.819Z,2196.00
2018-03-03T15:36:28.836Z,2172.00
2018-03-03T15:37:28.851Z,2152.00
2018-03-03T15:38:28.866Z,2128.00
2018-03-03T15:39:28.891Z,2100.00
2018-03-03T15:40:28.949Z,2072.00
2018-03-03T15:41:28.911Z,2048.00
2018-03-03T15:42:28.958Z,2028.00
2018-03-03T15:43:28.942Z,2008.00
2018-03-03T15:44:28.957Z,1988.00
2018-03-03T15:45:28.971Z,1968.00
2018-03-03T15:46:28.989Z,1944.00
2018-03-03T15:47:29.002Z,1920.00
2018-03-03T15:48:29.018Z,1892.00
2018-03-03T15:49:29.032Z,1868.00
2018-03-03T15:50:29.042Z,1840.00
2018-03-03T15:51:29.063Z,1820.00
2018-03-03T15:52:29.080Z,1796.00
2018-03-03T15:53:29.091Z,1772.00
2018-03-03T15:54:29.105Z,1752.00
2018-03-03T15:55:29.139Z,1728.00
2018-03-03T15:56:29.147Z,1704.00
2018-03-03T15:57:29.150Z,1684.00
2018-03-03T15:58:29.166Z,1660.00
2018-03-03T15:59:29.181Z,1636.00
2018-03-03T16:00:29.206Z,1608.00
2018-03-03T16:01:29.215Z,1580.00
2018-03-03T16:02:29.234Z,1556.00
2018-03-03T16:03:29.243Z,1528.00
2018-03-03T16:04:29.290Z,1496.00
2018-03-03T16:05:29.272Z,1468.00
2018-03-03T16:06:29.288Z,1428.00
2018-03-03T16:07:29.324Z,1400.00
2018-03-03T16:08:29.316Z,1364.00
2018-03-03T16:09:29.360Z,1332.00
2018-03-03T16:10:29.350Z,1308.00
2018-03-03T16:11:29.362Z,1284.00
2018-03-03T16:12:29.379Z,1260.00
2018-03-03T16:13:29.388Z,1232.00
2018-03-03T16:14:29.423Z,1220.00
2018-03-03T16:15:29.417Z,1196.00
2018-03-03T16:16:29.434Z,1184.00
2018-03-03T16:17:29.455Z,1168.00
2018-03-03T16:18:29.472Z,1160.00
2018-03-03T16:19:29.475Z,1140.00
2018-03-03T16:20:29.496Z,1128.00
2018-03-03T16:21:29.507Z,1112.00
2018-03-03T16:22:29.562Z,1100.00
2018-03-03T16:23:29.541Z,1080.00
2018-03-03T16:24:29.554Z,1064.00
2018-03-03T16:25:29.576Z,1056.00
2018-03-03T16:26:29.584Z,1044.00
2018-03-03T16:27:29.601Z,1036.00
2018-03-03T16:28:29.608Z,1024.00
2018-03-03T16:29:29.624Z,1020.00
2018-03-03T16:30:29.638Z,1008.00
2018-03-03T16:31:29.653Z,1000.00